Scottsburg, Indiana
Current Conditions -  °F | °C
As of 6:53 PM on Monday 20 Oct 2014 (Local Time) from KLOU Reporting Station
Clear Clear  
Wind Chill: 64°   Ceiling: Unl
Heat Index: 64°   Visibility: 10mi
Dew Point: 52°   Wind: 5mph
Humidity: 65%   Direction: 220°SW
Pressure: 29.9"   Gusts: NA
Location:  38.69°N, 85.77°W
Report Text: KLOU 202253Z 22004KT 10SM CLR 18/11 A2990 RMK AO2 SLP124 T01780111
Loading
Personal Weather Stations






























Interactive Weather Map
Tropical Storm Tracking
New forecast layout! Learn more

10-Day Weather Forecast

Advertisements
Track Severe Weather on mobile